Time;durP1;ratioP1;P1;durP2;ratioP2;P2;SDS_P1;SDS_P2;PMS_P1;PMS_P2;Temp;Humidity;BMP_temperature;BMP_pressure;BME280_temperature;BME280_humidity;BME280_pressure;Samples;Min_cycle;Max_cycle;Signal;HPM_P1;HPM_P2
2022/11/08 00:03:29;;;;;;;13.93;8.50;;;;;;;10.38;76.22;99422.22;4282830;82;28597;-75
2022/11/08 00:15:51;;;;;;;17.23;9.23;;;;;;;10.17;76.17;99418.34;4281989;82;28553;-76
2022/11/08 00:21:52;;;;;;;20.08;10.15;;;;;;;10.11;77.66;99421.92;4240811;83;28551;-77
2022/11/08 00:27:53;;;;;;;16.45;9.35;;;;;;;10.21;76.73;99426.80;4231605;83;28492;-77
2022/11/08 00:33:54;;;;;;;16.90;9.13;;;;;;;10.17;77.75;99426.94;4136137;86;28453;-78
2022/11/08 00:39:56;;;;;;;16.40;9.08;;;;;;;9.78;78.59;99428.86;4242155;84;28562;-77
2022/11/08 00:45:57;;;;;;;16.15;8.35;;;;;;;9.90;79.97;99415.03;4127457;86;28495;-77
2022/11/08 00:51:58;;;;;;;18.12;9.05;;;;;;;9.97;77.01;99417.67;4231350;84;28577;-78
2022/11/08 00:57:59;;;;;;;17.95;9.93;;;;;;;9.83;76.82;99418.28;4137525;86;28514;-78
2022/11/08 01:04:01;;;;;;;17.17;9.78;;;;;;;9.93;79.59;99418.62;4256865;84;28517;-78
2022/11/08 01:10:03;;;;;;;19.25;10.03;;;;;;;9.80;78.68;99420.06;4138637;86;28491;-78
2022/11/08 01:16:09;;;;;;;16.17;9.15;;;;;;;9.91;78.13;99419.36;4257200;84;28589;-79
2022/11/08 01:22:10;;;;;;;16.73;8.53;;;;;;;9.73;77.74;99410.71;4129763;86;28594;-80
2022/11/08 01:28:12;;;;;;;16.93;8.88;;;;;;;9.76;77.33;99416.98;4133049;86;28487;-80
2022/11/08 01:34:13;;;;;;;14.75;8.58;;;;;;;9.86;76.68;99422.70;4188692;85;28527;-80
2022/11/08 01:40:15;;;;;;;19.52;9.30;;;;;;;9.65;76.75;99413.64;4189004;84;28528;-81
2022/11/08 01:46:38;;;;;;;14.87;9.15;;;;;;;9.63;76.89;99408.48;4188629;84;28478;-80
2022/11/08 01:52:44;;;;;;;18.10;9.80;;;;;;;9.80;76.51;99412.00;4195015;84;28625;-80
2022/11/08 01:58:47;;;;;;;;;;;;;;;9.70;76.78;99415.18;4208265;84;28480;-79
2022/11/08 02:04:48;;;;;;;15.83;8.98;;;;;;;9.55;76.57;99407.41;4202519;84;20259;-80
2022/11/08 02:10:52;;;;;;;27.05;12.90;;;;;;;9.64;75.94;99412.84;4202469;85;28583;-80
2022/11/08 02:16:53;;;;;;;15.60;8.95;;;;;;;9.56;80.39;99408.52;4201952;84;28576;-80
2022/11/08 02:23:22;;;;;;;17.80;8.70;;;;;;;9.59;76.09;99403.25;4186317;85;28571;-80
2022/11/08 02:29:30;;;;;;;16.87;9.18;;;;;;;9.58;74.26;99394.39;4185088;83;28567;-80
2022/11/08 02:35:32;;;;;;;16.55;9.30;;;;;;;9.37;75.22;99390.66;4184815;84;28476;-80
2022/11/08 02:41:33;;;;;;;18.00;9.15;;;;;;;9.33;76.50;99392.44;4184855;85;28546;-80
2022/11/08 02:47:34;;;;;;;18.80;9.68;;;;;;;9.46;76.48;99398.27;4184911;85;28570;-78
2022/11/08 02:53:36;;;;;;;21.48;11.12;;;;;;;9.23;76.95;99393.95;4184738;84;28515;-80
2022/11/08 02:59:37;;;;;;;22.90;11.28;;;;;;;9.27;77.42;99395.16;4185051;84;28460;-80
2022/11/08 03:05:38;;;;;;;18.80;10.43;;;;;;;9.19;77.04;99401.07;4184874;84;28508;-82
2022/11/08 03:11:39;;;;;;;16.23;10.60;;;;;;;9.15;75.99;99393.16;4184497;85;28575;-80
2022/11/08 03:17:41;;;;;;;23.50;13.05;;;;;;;9.18;75.81;99395.41;4184891;85;28519;-81
2022/11/08 03:23:42;;;;;;;22.37;11.28;;;;;;;9.17;76.22;99401.00;4182663;85;28532;-77
2022/11/08 03:29:45;;;;;;;21.95;12.95;;;;;;;8.92;75.85;99402.53;4184280;85;28550;-76
2022/11/08 03:35:48;;;;;;;24.90;12.78;;;;;;;8.76;77.54;99404.31;4184176;84;28487;-78
2022/11/08 03:41:49;;;;;;;18.12;11.12;;;;;;;8.70;80.71;99405.17;4184378;84;28506;-77
2022/11/08 03:47:51;;;;;;;20.15;10.90;;;;;;;8.87;77.89;99402.32;4184447;84;28496;-77
2022/11/08 03:53:52;;;;;;;18.30;9.93;;;;;;;8.26;78.48;99410.94;4183637;85;28579;-77
2022/11/08 03:59:53;;;;;;;19.98;10.88;;;;;;;8.60;77.01;99405.59;4184373;84;28487;-77
2022/11/08 04:05:55;;;;;;;19.42;10.72;;;;;;;8.64;77.24;99406.30;4183726;85;28523;-77
2022/11/08 04:24:35;;;;;;;18.05;11.38;;;;;;;8.36;76.41;99409.20;4222233;82;28518;-78
2022/11/08 04:30:37;;;;;;;20.50;10.78;;;;;;;8.42;76.87;99414.25;4225690;82;28511;-78
2022/11/08 04:36:38;;;;;;;22.20;12.05;;;;;;;8.51;76.91;99415.18;4233741;82;28527;-78
2022/11/08 04:42:44;;;;;;;24.52;12.20;;;;;;;8.61;75.92;99403.21;4226154;82;28526;-76
2022/11/08 04:48:46;;;;;;;19.92;11.65;;;;;;;8.53;76.03;99394.05;4228641;82;28512;-77
2022/11/08 04:54:47;;;;;;;24.00;12.70;;;;;;;8.39;75.47;99394.58;4240719;82;28520;-77
2022/11/08 05:00:48;;;;;;;19.35;11.15;;;;;;;8.44;76.78;99390.23;4238477;82;28499;-77
2022/11/08 05:06:49;;;;;;;22.30;12.30;;;;;;;8.32;76.22;99389.20;4226888;83;28541;-76
2022/11/08 05:12:56;;;;;;;21.42;11.95;;;;;;;8.37;74.82;99390.22;4227008;83;28478;-77
2022/11/08 05:18:57;;;;;;;21.75;12.50;;;;;;;8.32;75.52;99389.20;4224578;82;28479;-75
2022/11/08 05:24:59;;;;;;;24.00;12.43;;;;;;;8.33;77.00;99385.48;4202450;83;28522;-76
2022/11/08 05:31:00;;;;;;;22.60;12.65;;;;;;;8.39;75.74;99373.14;4200992;83;28489;-76
2022/11/08 05:37:02;;;;;;;26.12;13.55;;;;;;;8.31;75.70;99374.16;4200587;84;28488;-76
2022/11/08 05:43:03;;;;;;;28.77;15.00;;;;;;;7.94;77.58;99390.15;4200570;83;28558;-74
2022/11/08 05:49:08;;;;;;;26.27;14.03;;;;;;;8.20;81.64;99387.68;4211478;83;28490;-89
2022/11/08 05:55:10;;;;;;;28.07;14.20;;;;;;;8.30;78.39;99400.64;4245256;83;28499;-82
2022/11/08 06:01:15;;;;;;;24.12;13.75;;;;;;;8.29;79.64;99409.21;4205759;83;28520;-79
2022/11/08 06:07:17;;;;;;;23.50;13.77;;;;;;;8.51;77.21;99405.80;4184851;84;28573;-79
2022/11/08 06:13:18;;;;;;;26.48;15.15;;;;;;;8.57;77.11;99417.54;4205494;81;46103;-79
2022/11/08 06:19:20;;;;;;;25.90;14.55;;;;;;;8.63;77.02;99414.54;4220369;83;29011;-78
2022/11/08 06:25:22;;;;;;;23.55;13.48;;;;;;;8.67;77.57;99417.63;4250739;81;28522;-79
2022/11/08 06:31:23;;;;;;;23.02;13.50;;;;;;;8.76;77.74;99417.22;4272649;81;28471;-79
2022/11/08 06:37:24;;;;;;;23.18;13.40;;;;;;;9.00;76.60;99416.72;4271157;81;28459;-79
2022/11/08 06:43:28;;;;;;;21.80;12.50;;;;;;;9.06;76.67;99418.06;4259002;81;28462;-76
2022/11/08 06:49:30;;;;;;;24.37;13.18;;;;;;;9.17;80.05;99427.30;4270175;82;28493;-87
2022/11/08 06:55:34;;;;;;;21.85;13.40;;;;;;;9.34;81.83;99432.19;4278177;81;28475;-87
2022/11/08 07:01:36;;;;;;;32.00;18.92;;;;;;;9.65;80.56;99432.44;4205063;83;28575;-88
2022/11/08 07:07:39;;;;;;;28.60;14.83;;;;;;;9.97;79.65;99434.63;4298198;81;28465;-87
2022/11/08 07:13:42;;;;;;;23.40;14.03;;;;;;;10.19;79.98;99440.97;4292351;81;28556;-87
2022/11/08 07:19:43;;;;;;;25.15;14.78;;;;;;;10.33;80.20;99440.35;4271778;81;28504;-87
2022/11/08 07:25:46;;;;;;;26.70;15.15;;;;;;;10.48;80.82;99441.90;4283612;81;28462;-87
2022/11/08 07:31:49;;;;;;;27.22;13.78;;;;;;;10.75;80.29;99443.81;4295769;81;28463;-87
2022/11/08 07:37:55;;;;;;;25.80;14.90;;;;;;;10.96;79.85;99439.88;4304933;81;28479;-86
2022/11/08 07:43:56;;;;;;;27.82;15.45;;;;;;;11.12;80.23;99439.81;4301396;81;28482;-87
2022/11/08 07:50:00;;;;;;;24.82;14.73;;;;;;;11.33;80.39;99436.36;4288218;81;28551;-86
2022/11/08 07:56:04;;;;;;;28.47;15.53;;;;;;;11.57;81.19;99432.41;4300475;81;28505;-87
2022/11/08 08:02:07;;;;;;;24.20;15.32;;;;;;;11.76;81.64;99419.70;4280882;82;28504;-87
2022/11/08 08:08:11;;;;;;;25.25;16.00;;;;;;;11.96;81.66;99422.13;4300585;81;28603;-86
2022/11/08 08:14:12;;;;;;;25.00;14.73;;;;;;;12.18;82.51;99420.77;4275740;81;28499;-87
2022/11/08 08:20:16;;;;;;;25.17;14.20;;;;;;;12.00;86.69;99418.45;4271582;82;28602;-86
2022/11/08 08:26:17;;;;;;;22.62;13.58;;;;;;;12.61;84.08;99412.07;4269750;82;28529;-87
2022/11/08 08:32:19;;;;;;;24.72;13.10;;;;;;;12.18;87.30;99414.03;4267764;81;28586;-86
2022/11/08 08:38:21;;;;;;;30.90;14.28;;;;;;;12.97;84.75;99404.77;4267303;81;28530;-86
2022/11/08 08:44:22;;;;;;;22.82;12.45;;;;;;;12.97;86.40;99402.88;4270123;81;28471;-87
2022/11/08 08:50:26;;;;;;;18.77;11.12;;;;;;;12.88;89.34;99410.23;4308267;81;28471;-86
2022/11/08 08:56:29;;;;;;;17.85;11.70;;;;;;;13.06;89.75;99399.81;4284837;81;28547;-87
2022/11/08 09:02:31;;;;;;;16.85;10.58;;;;;;;13.34;87.58;99398.20;4235216;81;28453;-87
2022/11/08 09:08:35;;;;;;;18.50;10.13;;;;;;;13.47;87.65;99401.99;4272128;81;28459;-86
2022/11/08 09:14:38;;;;;;;17.60;10.78;;;;;;;14.02;85.74;99392.14;4287118;81;28486;-87
2022/11/08 09:20:42;;;;;;;16.37;9.38;;;;;;;14.45;83.21;99393.34;4233219;81;28484;-87
2022/11/08 09:26:43;;;;;;;14.93;9.03;;;;;;;14.74;81.25;99389.19;4183934;83;28538;-87
2022/11/08 09:32:45;;;;;;;16.25;9.15;;;;;;;14.36;83.16;99398.89;4065181;86;28526;-87
2022/11/08 09:38:46;;;;;;;24.63;16.20;;;;;;;15.19;78.50;99386.48;4146105;85;28514;-87
2022/11/08 09:45:13;;;;;;;18.05;9.80;;;;;;;15.37;76.91;99383.16;4186677;83;28478;-86
2022/11/08 09:51:27;;;;;;;18.32;9.78;;;;;;;15.47;75.66;99388.13;4201565;83;28500;-85
2022/11/08 09:57:40;;;;;;;16.87;9.15;;;;;;;15.63;74.10;99392.38;4199943;83;28492;-87
2022/11/08 10:03:49;;;;;;;15.95;8.58;;;;;;;16.11;72.92;99390.36;4204261;83;28474;-87
2022/11/08 10:10:20;;;;;;;13.65;7.42;;;;;;;16.24;72.30;99383.69;4205196;83;28465;-86
2022/11/08 10:16:42;;;;;;;14.03;6.95;;;;;;;16.42;71.69;99377.02;4163382;83;28540;-87
2022/11/08 10:23:06;;;;;;;14.38;6.40;;;;;;;16.59;71.00;99372.77;4248475;82;28538;-87
2022/11/08 10:29:19;;;;;;;9.65;5.53;;;;;;;16.79;69.91;99367.17;4286781;81;28459;-87
2022/11/08 10:35:44;;;;;;;10.10;5.28;;;;;;;16.82;70.12;99363.39;4272859;81;28435;-85
2022/11/08 10:42:11;;;;;;;8.77;3.77;;;;;;;16.93;69.77;99347.14;4279045;81;33996;-86
2022/11/08 10:48:12;;;;;;;6.20;2.90;;;;;;;17.09;68.92;99342.61;4278006;82;28451;-87
2022/11/08 10:54:54;;;;;;;4.40;1.90;;;;;;;17.17;67.42;99340.73;4286119;81;28570;-87
2022/11/08 11:01:21;;;;;;;3.40;1.92;;;;;;;17.25;66.50;99332.60;4269617;81;28539;-88
2022/11/08 11:07:34;;;;;;;2.10;1.30;;;;;;;16.65;65.20;99333.73;4258515;81;28498;-87
2022/11/08 11:13:39;;;;;;;4.60;1.52;;;;;;;17.54;64.36;99313.09;4279579;81;28491;-87
2022/11/08 11:19:46;;;;;;;4.15;1.90;;;;;;;17.67;63.57;99301.66;4271485;81;28553;-87
2022/11/08 11:25:50;;;;;;;3.80;1.57;;;;;;;18.06;61.28;99294.05;4262487;82;28467;-87
2022/11/08 11:31:53;;;;;;;3.12;1.72;;;;;;;18.23;61.07;99297.30;4278620;81;28549;-87
2022/11/08 11:37:57;;;;;;;5.35;1.90;;;;;;;18.18;60.19;99295.13;4280729;81;28467;-87
2022/11/08 11:44:19;;;;;;;3.58;2.10;;;;;;;18.15;58.39;99293.77;4276853;82;28537;-87
2022/11/08 11:50:41;;;;;;;4.47;1.80;;;;;;;18.21;58.61;99292.65;4277560;82;28505;-87
2022/11/08 11:56:57;;;;;;;4.37;1.95;;;;;;;18.42;59.97;99288.52;4262815;81;28540;-87
2022/11/08 12:03:31;;;;;;;3.90;2.00;;;;;;;18.56;59.63;99281.14;4257665;81;28530;-87
2022/11/08 12:10:04;;;;;;;7.65;1.98;;;;;;;18.63;59.14;99272.92;4278918;81;28501;-86
2022/11/08 12:16:16;;;;;;;5.62;2.00;;;;;;;18.72;58.76;99272.36;4284669;81;28462;-87
2022/11/08 12:23:12;;;;;;;3.90;2.00;;;;;;;18.79;57.85;99265.50;4271595;81;28516;-87
2022/11/08 12:29:27;;;;;;;4.23;1.77;;;;;;;18.80;57.39;99255.44;4263551;82;28475;-87
2022/11/08 12:35:43;;;;;;;4.53;1.50;;;;;;;19.01;57.78;99252.63;4181557;83;33918;-87
2022/11/08 12:42:17;;;;;;;5.40;1.30;;;;;;;19.13;57.22;99246.80;4161175;83;28476;-86
2022/11/08 12:48:59;;;;;;;2.62;1.20;;;;;;;19.04;56.66;99243.31;4200587;83;28445;-86
2022/11/08 12:55:04;;;;;;;3.15;1.37;;;;;;;19.00;56.08;99238.67;4233126;83;28488;-87
2022/11/08 13:01:12;;;;;;;1.98;1.17;;;;;;;19.08;56.73;99238.94;4146848;84;28455;-87
2022/11/08 13:07:36;;;;;;;2.65;1.20;;;;;;;18.66;57.52;99228.80;4192650;83;28531;-86
2022/11/08 13:13:49;;;;;;;2.87;1.40;;;;;;;19.25;55.40;99225.45;4262859;83;28503;-87
2022/11/08 13:19:57;;;;;;;1.72;1.10;;;;;;;19.14;55.58;99222.00;4251425;83;28494;-87
2022/11/08 13:26:23;;;;;;;3.12;1.30;;;;;;;19.27;55.94;99225.17;4300083;82;28606;-87
2022/11/08 13:32:51;;;;;;;2.67;1.30;;;;;;;19.12;56.38;99228.30;4252606;82;28480;-87
2022/11/08 13:39:25;;;;;;;3.37;1.55;;;;;;;19.09;55.20;99223.39;4289814;82;28501;-87
2022/11/08 13:45:31;;;;;;;4.00;1.30;;;;;;;18.93;55.68;99226.73;4293697;82;28490;-87
2022/11/08 13:51:34;;;;;;;;;;;;;;;19.12;54.82;99224.74;4302226;82;28583;-87
2022/11/08 13:57:59;;;;;;;4.95;1.87;;;;;;;18.70;56.44;99225.53;4281656;82;20216;-87
2022/11/08 14:04:01;;;;;;;6.73;2.00;;;;;;;18.05;58.02;99234.73;4300160;82;28529;-87
2022/11/08 14:10:39;;;;;;;7.53;2.10;;;;;;;18.78;56.65;99221.66;4281017;82;28430;-86
2022/11/08 14:16:52;;;;;;;5.50;2.20;;;;;;;18.87;57.36;99222.43;4263266;82;28510;-87
2022/11/08 14:22:54;;;;;;;5.25;2.10;;;;;;;18.07;58.81;99223.59;4268752;81;28584;-87
2022/11/08 14:29:04;;;;;;;5.42;2.25;;;;;;;18.11;58.91;99217.86;4176301;82;28521;-87
2022/11/08 14:35:21;;;;;;;10.65;2.40;;;;;;;17.84;59.86;99220.36;4193003;82;28531;-87
2022/11/08 14:41:27;;;;;;;6.85;2.02;;;;;;;18.06;59.45;99207.80;4208741;82;28460;-87
2022/11/08 14:47:30;;;;;;;4.53;1.93;;;;;;;17.61;60.36;99214.95;4299924;81;28463;-87
2022/11/08 14:53:49;;;;;;;6.80;2.10;;;;;;;17.91;59.53;99214.09;4295995;81;28498;-88
2022/11/08 14:59:53;;;;;;;5.67;2.00;;;;;;;17.31;61.03;99201.64;4299906;81;28518;-87
2022/11/08 15:12:27;;;;;;;7.00;1.82;;;;;;;17.57;61.15;99195.64;4273213;81;28484;-87
2022/11/08 15:18:38;;;;;;;5.05;1.80;;;;;;;17.34;62.20;99194.30;4286819;81;28434;-87
2022/11/08 15:24:40;;;;;;;5.25;1.98;;;;;;;17.06;62.46;99196.48;4273344;81;28574;-87
2022/11/08 15:30:58;;;;;;;5.25;1.95;;;;;;;16.96;62.38;99189.92;4252749;82;28509;-87
2022/11/08 15:37:01;;;;;;;5.03;1.95;;;;;;;16.07;64.91;99183.95;4170530;83;28460;-87
2022/11/08 15:43:03;;;;;;;9.10;2.92;;;;;;;15.84;66.13;99190.04;4271619;82;28519;-77
2022/11/08 15:49:26;;;;;;;11.38;4.35;;;;;;;15.73;66.34;99189.17;4188404;83;28484;-79
2022/11/08 15:55:40;;;;;;;4.47;2.12;;;;;;;15.81;66.96;99185.15;4254968;81;28588;-77
2022/11/08 16:01:49;;;;;;;5.80;2.12;;;;;;;15.53;67.28;99185.78;4139462;84;28523;-77
2022/11/08 16:07:52;;;;;;;6.58;2.17;;;;;;;15.36;67.81;99185.09;4212690;83;28552;-77
2022/11/08 16:13:53;;;;;;;5.75;2.17;;;;;;;15.17;68.24;99186.31;4266734;82;28547;-78
2022/11/08 16:19:55;;;;;;;6.55;2.35;;;;;;;15.10;69.01;99178.96;4273094;82;28510;-79
2022/11/08 16:25:59;;;;;;;7.30;2.40;;;;;;;15.02;69.73;99182.14;4299118;81;28498;-78
2022/11/08 16:32:01;;;;;;;5.75;2.50;;;;;;;14.89;70.93;99183.36;4314256;81;28492;-79
2022/11/08 16:38:02;;;;;;;7.53;2.60;;;;;;;14.56;72.04;99183.81;4325066;80;28507;-77
2022/11/08 16:44:04;;;;;;;6.17;1.98;;;;;;;14.49;72.96;99188.88;4305211;81;28506;-78
2022/11/08 16:50:20;;;;;;;9.60;2.50;;;;;;;14.45;72.67;99185.58;4283065;81;28543;-85
2022/11/08 16:56:23;;;;;;;6.70;2.35;;;;;;;14.15;74.59;99194.42;4264823;82;28509;-81
2022/11/08 17:02:31;;;;;;;6.12;2.40;;;;;;;14.43;74.08;99193.96;4274971;81;28568;-80
2022/11/08 17:08:33;;;;;;;5.33;2.45;;;;;;;14.86;71.95;99194.71;4306193;81;28450;-77
2022/11/08 17:14:34;;;;;;;5.20;2.30;;;;;;;14.71;71.84;99191.28;4309853;81;28521;-77
2022/11/08 17:20:36;;;;;;;7.20;2.72;;;;;;;14.71;71.19;99192.63;4272474;81;28488;-78
2022/11/08 17:26:37;;;;;;;8.13;3.08;;;;;;;14.41;72.22;99196.08;4259004;82;28537;-81
2022/11/08 17:32:39;;;;;;;9.78;3.02;;;;;;;14.35;73.26;99196.55;4125502;84;29266;-80
2022/11/08 17:38:56;;;;;;;8.03;3.00;;;;;;;14.33;72.92;99195.20;4137947;84;28575;-88
2022/11/08 17:44:57;;;;;;;5.37;2.50;;;;;;;13.99;74.78;99204.74;4130508;83;28525;-80
2022/11/08 17:51:02;;;;;;;8.40;3.95;;;;;;;14.03;74.08;99208.05;4201498;83;28455;-83
2022/11/08 17:57:09;;;;;;;7.65;3.10;;;;;;;13.92;75.78;99205.76;4217825;83;28481;-86
2022/11/08 18:03:11;;;;;;;11.03;3.77;;;;;;;13.90;74.35;99204.36;4167199;84;28555;-79
2022/11/08 18:09:13;;;;;;;14.60;7.25;;;;;;;13.11;77.91;99209.08;4202594;83;28526;-87
2022/11/08 18:15:19;;;;;;;14.43;6.97;;;;;;;13.46;77.76;99214.00;4206446;83;28510;-83
2022/11/08 18:21:21;;;;;;;16.90;7.12;;;;;;;13.38;78.32;99217.07;4135208;84;28496;-81
2022/11/08 18:27:22;;;;;;;15.00;7.60;;;;;;;12.91;81.73;99214.11;4213393;83;28496;-82
2022/11/08 18:33:23;;;;;;;17.00;8.40;;;;;;;12.47;82.95;99212.77;4129776;84;28499;-81
2022/11/08 18:39:28;;;;;;;19.65;8.73;;;;;;;12.99;83.73;99210.19;4132023;84;28524;-81
2022/11/08 18:45:31;;;;;;;19.57;8.05;;;;;;;12.48;83.02;99213.05;4151277;84;28452;-83
2022/11/08 18:51:35;;;;;;;22.48;10.32;;;;;;;12.28;83.35;99217.48;4193529;84;28465;-84
2022/11/08 18:57:42;;;;;;;19.07;8.85;;;;;;;12.94;86.08;99202.83;4206627;84;28544;-82
2022/11/08 19:03:42;;;;;;;19.67;9.08;;;;;;;12.43;86.72;99216.98;4207111;83;28494;-83
2022/11/08 19:09:44;;;;;;;19.23;9.20;;;;;;;12.69;84.16;99214.80;4189654;84;28493;-83
2022/11/08 19:16:08;;;;;;;19.87;9.23;;;;;;;12.81;81.52;99220.95;4205710;84;28435;-82
2022/11/08 19:22:15;;;;;;;21.17;9.20;;;;;;;12.26;84.61;99220.95;4188674;83;28492;-82
2022/11/08 19:28:20;;;;;;;19.37;8.93;;;;;;;11.56;86.95;99231.51;4218537;83;28497;-82
2022/11/08 19:34:21;;;;;;;18.50;8.75;;;;;;;11.66;89.03;99238.48;4233843;82;28673;-83
2022/11/08 19:40:23;;;;;;;20.82;9.35;;;;;;;11.62;88.30;99240.02;4214807;83;28483;-84
2022/11/08 19:46:28;;;;;;;18.48;9.00;;;;;;;11.82;87.04;99243.70;4243159;82;28469;-82
2022/11/08 19:52:35;;;;;;;20.03;8.17;;;;;;;11.94;85.21;99239.67;4246206;82;28594;-82
2022/11/08 19:58:37;;;;;;;21.15;8.78;;;;;;;11.80;86.20;99243.12;4233860;82;28528;-82
2022/11/08 20:04:39;;;;;;;16.82;8.30;;;;;;;11.38;86.85;99256.11;4248829;82;28510;-76
2022/11/08 20:10:43;;;;;;;15.45;7.72;;;;;;;11.48;86.43;99253.38;4200272;82;28472;-86
2022/11/08 20:16:52;;;;;;;18.12;7.85;;;;;;;11.33;85.05;99260.55;4226028;83;28700;-88
2022/11/08 20:22:56;;;;;;;15.93;8.70;;;;;;;11.65;84.89;99255.70;4183884;82;28468;-90
2022/11/08 20:28:58;;;;;;;17.02;8.55;;;;;;;11.60;82.70;99256.10;4218298;83;28561;-78
2022/11/08 20:35:03;;;;;;;18.10;8.63;;;;;;;11.42;82.78;99257.31;4204954;83;28470;-92
2022/11/08 20:41:39;;;;;;;;;;;;;;;;;;;;;
2022/11/08 20:47:35;;;;;;;14.93;8.25;;;;;;;10.89;88.12;99248.14;4200570;83;28447;-89
2022/11/08 20:53:39;;;;;;;18.30;8.83;;;;;;;10.41;88.09;99248.41;4205181;83;28504;-93
2022/11/08 20:59:43;;;;;;;19.35;8.55;;;;;;;10.52;87.62;99250.37;4205721;83;28460;-88
2022/11/08 21:05:59;;;;;;;18.98;8.93;;;;;;;10.96;86.05;99249.39;4205136;83;28483;-85
2022/11/08 21:12:03;;;;;;;19.92;8.85;;;;;;;10.46;88.65;99248.56;4208026;83;28487;-86
2022/11/08 21:18:08;;;;;;;18.73;8.85;;;;;;;10.43;88.23;99254.41;4221831;81;28466;-90
2022/11/08 21:24:25;;;;;;;18.90;9.10;;;;;;;10.85;85.50;99246.42;4224090;82;28553;-93
2022/11/08 21:44:14;;;;;;;15.75;7.53;;;;;;;10.62;86.46;99247.16;4226016;83;28473;-92
2022/11/08 21:50:53;;;;;;;15.20;7.20;;;;;;;10.29;86.48;99253.19;4235249;78;28582;-90
2022/11/08 21:57:32;;;;;;;15.38;8.25;;;;;;;10.46;85.99;99247.22;4216343;82;28493;-90
2022/11/08 22:03:35;;;;;;;15.75;7.58;;;;;;;10.50;83.54;99251.63;4208356;83;28482;-89
2022/11/08 22:09:47;;;;;;;16.20;7.45;;;;;;;10.62;82.45;99248.50;4233671;83;28462;-88
2022/11/08 22:22:55;;;;;;;15.43;7.72;;;;;;;10.48;82.25;99247.84;4287274;83;28840;-87
2022/11/08 22:28:58;;;;;;;16.45;7.80;;;;;;;9.77;86.07;99253.48;4269477;81;28519;-90
2022/11/08 22:41:38;;;;;;;15.53;8.13;;;;;;;9.77;86.86;99253.48;4390458;81;28535;-86
2022/11/08 22:47:39;;;;;;;17.73;8.78;;;;;;;9.65;85.99;99264.14;4293211;80;28534;-84
2022/11/08 22:53:41;;;;;;;17.02;9.05;;;;;;;9.27;88.25;99252.45;4326400;80;28474;-85
2022/11/08 22:59:45;;;;;;;21.15;9.75;;;;;;;10.11;80.94;99260.72;4329416;80;28494;-86
2022/11/08 23:05:51;;;;;;;20.92;9.83;;;;;;;9.75;83.55;99259.60;4355133;80;28453;-83
2022/11/08 23:18:15;;;;;;;16.42;9.38;;;;;;;9.72;82.40;99258.71;4360921;80;28469;-87
2022/11/08 23:24:19;;;;;;;17.10;8.90;;;;;;;9.65;83.21;99252.56;4347057;80;28467;-86
2022/11/08 23:36:40;;;;;;;19.92;8.78;;;;;;;9.48;82.35;99263.33;4305082;80;28457;-87
2022/11/08 23:49:02;;;;;;;21.77;9.43;;;;;;;9.26;80.88;99264.73;4279996;81;28479;-82
2022/11/08 23:55:04;;;;;;;18.55;8.70;;;;;;;9.46;81.35;99267.27;4266122;81;28462;-83
